sensor_id;sensor_type;location;lat;lon;timestamp;P1;durP1;ratioP1;P2;durP2;ratioP2
12556;SDS011;6344;49.932;8.308;2023-05-07T00:01:36;3.63;;;3.43;;
12556;SDS011;6344;49.932;8.308;2023-05-07T00:04:04;3.97;;;3.00;;
12556;SDS011;6344;49.932;8.308;2023-05-07T00:06:32;3.40;;;3.20;;
12556;SDS011;6344;49.932;8.308;2023-05-07T00:08:59;3.93;;;3.50;;
12556;SDS011;6344;49.932;8.308;2023-05-07T00:11:25;3.23;;;3.03;;
12556;SDS011;6344;49.932;8.308;2023-05-07T00:13:52;4.07;;;2.80;;
12556;SDS011;6344;49.932;8.308;2023-05-07T00:16:19;3.73;;;3.20;;
12556;SDS011;6344;49.932;8.308;2023-05-07T00:18:47;3.03;;;2.83;;
12556;SDS011;6344;49.932;8.308;2023-05-07T00:21:14;3.60;;;2.97;;
12556;SDS011;6344;49.932;8.308;2023-05-07T00:23:40;3.30;;;3.00;;
12556;SDS011;6344;49.932;8.308;2023-05-07T00:26:07;6.10;;;4.40;;
12556;SDS011;6344;49.932;8.308;2023-05-07T00:28:34;4.40;;;4.00;;
12556;SDS011;6344;49.932;8.308;2023-05-07T00:31:00;5.70;;;4.07;;
12556;SDS011;6344;49.932;8.308;2023-05-07T00:33:27;3.83;;;3.43;;
12556;SDS011;6344;49.932;8.308;2023-05-07T00:35:55;5.00;;;4.30;;
12556;SDS011;6344;49.932;8.308;2023-05-07T00:38:21;4.23;;;3.83;;
12556;SDS011;6344;49.932;8.308;2023-05-07T00:40:48;4.30;;;4.00;;
12556;SDS011;6344;49.932;8.308;2023-05-07T00:43:16;3.80;;;3.47;;
12556;SDS011;6344;49.932;8.308;2023-05-07T00:45:43;4.37;;;3.97;;
12556;SDS011;6344;49.932;8.308;2023-05-07T00:48:09;4.73;;;4.23;;
12556;SDS011;6344;49.932;8.308;2023-05-07T00:50:36;3.67;;;3.37;;
12556;SDS011;6344;49.932;8.308;2023-05-07T00:53:04;3.50;;;3.20;;
12556;SDS011;6344;49.932;8.308;2023-05-07T00:55:32;4.03;;;3.70;;
12556;SDS011;6344;49.932;8.308;2023-05-07T00:57:59;3.60;;;3.30;;
12556;SDS011;6344;49.932;8.308;2023-05-07T01:00:25;4.03;;;3.63;;
12556;SDS011;6344;49.932;8.308;2023-05-07T01:02:53;3.30;;;3.10;;
12556;SDS011;6344;49.932;8.308;2023-05-07T01:05:19;3.23;;;2.93;;
12556;SDS011;6344;49.932;8.308;2023-05-07T01:07:49;2.80;;;2.60;;
12556;SDS011;6344;49.932;8.308;2023-05-07T01:10:18;3.60;;;3.40;;
12556;SDS011;6344;49.932;8.308;2023-05-07T01:12:45;3.03;;;2.83;;
12556;SDS011;6344;49.932;8.308;2023-05-07T01:15:13;3.47;;;3.17;;
12556;SDS011;6344;49.932;8.308;2023-05-07T01:17:41;4.00;;;3.70;;
12556;SDS011;6344;49.932;8.308;2023-05-07T01:20:08;4.50;;;4.10;;
12556;SDS011;6344;49.932;8.308;2023-05-07T01:22:37;4.10;;;3.80;;
12556;SDS011;6344;49.932;8.308;2023-05-07T01:25:05;3.57;;;3.37;;
12556;SDS011;6344;49.932;8.308;2023-05-07T01:27:33;4.10;;;3.70;;
12556;SDS011;6344;49.932;8.308;2023-05-07T01:30:00;4.37;;;3.97;;
12556;SDS011;6344;49.932;8.308;2023-05-07T01:32:29;4.57;;;4.17;;
12556;SDS011;6344;49.932;8.308;2023-05-07T01:34:59;4.40;;;4.10;;
12556;SDS011;6344;49.932;8.308;2023-05-07T01:37:28;6.90;;;4.20;;
12556;SDS011;6344;49.932;8.308;2023-05-07T01:39:56;3.90;;;3.60;;
12556;SDS011;6344;49.932;8.308;2023-05-07T01:42:23;4.87;;;4.47;;
12556;SDS011;6344;49.932;8.308;2023-05-07T01:44:50;5.17;;;4.40;;
12556;SDS011;6344;49.932;8.308;2023-05-07T01:47:17;4.43;;;4.13;;
12556;SDS011;6344;49.932;8.308;2023-05-07T01:49:44;4.40;;;4.10;;
12556;SDS011;6344;49.932;8.308;2023-05-07T01:52:11;3.57;;;3.30;;
12556;SDS011;6344;49.932;8.308;2023-05-07T01:54:39;4.10;;;3.70;;
12556;SDS011;6344;49.932;8.308;2023-05-07T01:57:07;4.20;;;3.90;;
12556;SDS011;6344;49.932;8.308;2023-05-07T01:59:33;4.60;;;4.10;;
12556;SDS011;6344;49.932;8.308;2023-05-07T02:02:00;3.97;;;3.67;;
12556;SDS011;6344;49.932;8.308;2023-05-07T02:04:27;5.17;;;4.60;;
12556;SDS011;6344;49.932;8.308;2023-05-07T02:06:53;4.50;;;3.97;;
12556;SDS011;6344;49.932;8.308;2023-05-07T02:09:20;4.80;;;4.40;;
12556;SDS011;6344;49.932;8.308;2023-05-07T02:11:47;4.17;;;3.77;;
12556;SDS011;6344;49.932;8.308;2023-05-07T02:14:15;4.87;;;4.33;;
12556;SDS011;6344;49.932;8.308;2023-05-07T02:16:42;4.60;;;4.20;;
12556;SDS011;6344;49.932;8.308;2023-05-07T02:19:09;4.33;;;4.00;;
12556;SDS011;6344;49.932;8.308;2023-05-07T02:21:35;4.60;;;4.30;;
12556;SDS011;6344;49.932;8.308;2023-05-07T02:24:02;4.00;;;3.70;;
12556;SDS011;6344;49.932;8.308;2023-05-07T02:26:29;4.93;;;4.40;;
12556;SDS011;6344;49.932;8.308;2023-05-07T02:28:56;3.63;;;3.40;;
12556;SDS011;6344;49.932;8.308;2023-05-07T02:31:24;4.67;;;4.27;;
12556;SDS011;6344;49.932;8.308;2023-05-07T02:33:50;3.77;;;3.47;;
12556;SDS011;6344;49.932;8.308;2023-05-07T02:36:17;4.37;;;3.83;;
12556;SDS011;6344;49.932;8.308;2023-05-07T02:38:43;4.17;;;3.87;;
12556;SDS011;6344;49.932;8.308;2023-05-07T02:41:10;4.00;;;3.70;;
12556;SDS011;6344;49.932;8.308;2023-05-07T02:43:37;4.50;;;4.17;;
12556;SDS011;6344;49.932;8.308;2023-05-07T02:46:04;5.20;;;4.80;;
12556;SDS011;6344;49.932;8.308;2023-05-07T02:48:33;3.90;;;3.50;;
12556;SDS011;6344;49.932;8.308;2023-05-07T02:51:00;6.67;;;3.93;;
12556;SDS011;6344;49.932;8.308;2023-05-07T02:53:28;5.53;;;3.90;;
12556;SDS011;6344;49.932;8.308;2023-05-07T02:55:55;4.50;;;4.13;;
12556;SDS011;6344;49.932;8.308;2023-05-07T02:58:22;4.33;;;4.03;;
12556;SDS011;6344;49.932;8.308;2023-05-07T03:00:49;4.17;;;3.87;;
12556;SDS011;6344;49.932;8.308;2023-05-07T03:03:16;5.50;;;3.77;;
12556;SDS011;6344;49.932;8.308;2023-05-07T03:05:44;5.17;;;4.77;;
12556;SDS011;6344;49.932;8.308;2023-05-07T03:08:11;3.93;;;3.60;;
12556;SDS011;6344;49.932;8.308;2023-05-07T03:10:37;4.97;;;4.50;;
12556;SDS011;6344;49.932;8.308;2023-05-07T03:13:04;9.30;;;4.60;;
12556;SDS011;6344;49.932;8.308;2023-05-07T03:15:31;4.70;;;4.07;;
12556;SDS011;6344;49.932;8.308;2023-05-07T03:17:57;6.63;;;4.27;;
12556;SDS011;6344;49.932;8.308;2023-05-07T03:20:24;6.80;;;4.60;;
12556;SDS011;6344;49.932;8.308;2023-05-07T03:22:52;4.47;;;4.17;;
12556;SDS011;6344;49.932;8.308;2023-05-07T03:25:19;5.10;;;4.20;;
12556;SDS011;6344;49.932;8.308;2023-05-07T03:27:45;5.97;;;4.60;;
12556;SDS011;6344;49.932;8.308;2023-05-07T03:30:12;9.60;;;4.90;;
12556;SDS011;6344;49.932;8.308;2023-05-07T03:32:38;4.93;;;4.43;;
12556;SDS011;6344;49.932;8.308;2023-05-07T03:35:05;5.07;;;4.20;;
12556;SDS011;6344;49.932;8.308;2023-05-07T03:37:32;4.90;;;4.53;;
12556;SDS011;6344;49.932;8.308;2023-05-07T03:40:00;4.27;;;3.97;;
12556;SDS011;6344;49.932;8.308;2023-05-07T03:42:28;4.77;;;4.47;;
12556;SDS011;6344;49.932;8.308;2023-05-07T03:44:55;5.30;;;4.77;;
12556;SDS011;6344;49.932;8.308;2023-05-07T03:47:21;4.33;;;4.00;;
12556;SDS011;6344;49.932;8.308;2023-05-07T03:49:48;4.03;;;3.73;;
12556;SDS011;6344;49.932;8.308;2023-05-07T03:52:15;5.20;;;4.70;;
12556;SDS011;6344;49.932;8.308;2023-05-07T03:54:47;9.07;;;4.80;;
12556;SDS011;6344;49.932;8.308;2023-05-07T03:57:15;5.03;;;4.50;;
12556;SDS011;6344;49.932;8.308;2023-05-07T03:59:42;4.80;;;4.40;;
12556;SDS011;6344;49.932;8.308;2023-05-07T04:02:08;4.80;;;4.40;;
12556;SDS011;6344;49.932;8.308;2023-05-07T04:04:35;6.37;;;4.70;;
12556;SDS011;6344;49.932;8.308;2023-05-07T04:07:02;5.50;;;5.00;;
12556;SDS011;6344;49.932;8.308;2023-05-07T04:09:29;4.90;;;4.50;;
12556;SDS011;6344;49.932;8.308;2023-05-07T04:11:56;5.57;;;5.00;;
12556;SDS011;6344;49.932;8.308;2023-05-07T04:14:24;4.83;;;4.33;;
12556;SDS011;6344;49.932;8.308;2023-05-07T04:16:50;4.97;;;4.67;;
12556;SDS011;6344;49.932;8.308;2023-05-07T04:19:17;4.80;;;3.93;;
12556;SDS011;6344;49.932;8.308;2023-05-07T04:21:43;5.20;;;4.50;;
12556;SDS011;6344;49.932;8.308;2023-05-07T04:24:10;10.13;;;4.70;;
12556;SDS011;6344;49.932;8.308;2023-05-07T04:26:37;5.00;;;4.53;;
12556;SDS011;6344;49.932;8.308;2023-05-07T04:29:03;4.07;;;3.80;;
12556;SDS011;6344;49.932;8.308;2023-05-07T04:31:32;4.10;;;3.90;;
12556;SDS011;6344;49.932;8.308;2023-05-07T04:33:59;4.50;;;4.20;;
12556;SDS011;6344;49.932;8.308;2023-05-07T04:36:25;4.33;;;3.93;;
12556;SDS011;6344;49.932;8.308;2023-05-07T04:38:54;4.90;;;4.50;;
12556;SDS011;6344;49.932;8.308;2023-05-07T04:41:20;3.90;;;3.63;;
12556;SDS011;6344;49.932;8.308;2023-05-07T04:43:47;4.77;;;4.40;;
12556;SDS011;6344;49.932;8.308;2023-05-07T04:46:14;4.37;;;4.07;;
12556;SDS011;6344;49.932;8.308;2023-05-07T04:48:42;4.13;;;3.83;;
12556;SDS011;6344;49.932;8.308;2023-05-07T04:51:08;4.03;;;3.83;;
12556;SDS011;6344;49.932;8.308;2023-05-07T04:53:36;5.67;;;4.50;;
12556;SDS011;6344;49.932;8.308;2023-05-07T04:56:03;3.53;;;3.33;;
12556;SDS011;6344;49.932;8.308;2023-05-07T04:58:30;4.50;;;4.20;;
12556;SDS011;6344;49.932;8.308;2023-05-07T05:00:57;4.20;;;3.90;;
12556;SDS011;6344;49.932;8.308;2023-05-07T05:03:24;4.17;;;3.87;;
12556;SDS011;6344;49.932;8.308;2023-05-07T05:05:52;3.63;;;3.43;;
12556;SDS011;6344;49.932;8.308;2023-05-07T05:08:18;4.87;;;4.47;;
12556;SDS011;6344;49.932;8.308;2023-05-07T05:10:45;4.87;;;4.47;;
12556;SDS011;6344;49.932;8.308;2023-05-07T05:13:13;4.47;;;4.17;;
12556;SDS011;6344;49.932;8.308;2023-05-07T05:15:40;3.93;;;3.47;;
12556;SDS011;6344;49.932;8.308;2023-05-07T05:18:07;4.10;;;3.80;;
12556;SDS011;6344;49.932;8.308;2023-05-07T05:20:33;4.30;;;4.00;;
12556;SDS011;6344;49.932;8.308;2023-05-07T05:23:01;4.43;;;4.03;;
12556;SDS011;6344;49.932;8.308;2023-05-07T05:25:28;5.00;;;4.60;;
12556;SDS011;6344;49.932;8.308;2023-05-07T05:27:54;4.77;;;4.37;;
12556;SDS011;6344;49.932;8.308;2023-05-07T05:30:21;3.80;;;3.50;;
12556;SDS011;6344;49.932;8.308;2023-05-07T05:32:48;4.13;;;3.93;;
12556;SDS011;6344;49.932;8.308;2023-05-07T05:35:14;4.57;;;4.20;;
12556;SDS011;6344;49.932;8.308;2023-05-07T05:37:41;4.20;;;3.70;;
12556;SDS011;6344;49.932;8.308;2023-05-07T05:40:10;4.33;;;4.03;;
12556;SDS011;6344;49.932;8.308;2023-05-07T05:42:37;5.20;;;4.40;;
12556;SDS011;6344;49.932;8.308;2023-05-07T05:45:04;4.00;;;3.70;;
12556;SDS011;6344;49.932;8.308;2023-05-07T05:47:31;4.40;;;4.07;;
12556;SDS011;6344;49.932;8.308;2023-05-07T05:49:58;5.30;;;4.30;;
12556;SDS011;6344;49.932;8.308;2023-05-07T05:52:25;4.13;;;3.83;;
12556;SDS011;6344;49.932;8.308;2023-05-07T05:54:51;4.17;;;3.87;;
12556;SDS011;6344;49.932;8.308;2023-05-07T05:57:20;4.10;;;3.80;;
12556;SDS011;6344;49.932;8.308;2023-05-07T05:59:47;4.37;;;4.07;;
12556;SDS011;6344;49.932;8.308;2023-05-07T06:02:14;5.03;;;4.73;;
12556;SDS011;6344;49.932;8.308;2023-05-07T06:04:41;3.97;;;3.67;;
12556;SDS011;6344;49.932;8.308;2023-05-07T06:07:07;3.27;;;3.00;;
12556;SDS011;6344;49.932;8.308;2023-05-07T06:09:34;4.67;;;3.70;;
12556;SDS011;6344;49.932;8.308;2023-05-07T06:12:01;4.10;;;3.90;;
12556;SDS011;6344;49.932;8.308;2023-05-07T06:14:29;4.30;;;4.00;;
12556;SDS011;6344;49.932;8.308;2023-05-07T06:16:55;4.73;;;4.40;;
12556;SDS011;6344;49.932;8.308;2023-05-07T06:19:22;4.20;;;3.80;;
12556;SDS011;6344;49.932;8.308;2023-05-07T06:21:51;4.17;;;3.87;;
12556;SDS011;6344;49.932;8.308;2023-05-07T06:24:18;4.37;;;4.03;;
12556;SDS011;6344;49.932;8.308;2023-05-07T06:26:44;5.20;;;4.70;;
12556;SDS011;6344;49.932;8.308;2023-05-07T06:29:11;4.50;;;4.20;;
12556;SDS011;6344;49.932;8.308;2023-05-07T06:31:39;4.63;;;4.33;;
12556;SDS011;6344;49.932;8.308;2023-05-07T06:34:06;3.97;;;3.67;;
12556;SDS011;6344;49.932;8.308;2023-05-07T06:36:33;4.60;;;4.30;;
12556;SDS011;6344;49.932;8.308;2023-05-07T06:38:59;4.53;;;4.23;;
12556;SDS011;6344;49.932;8.308;2023-05-07T06:41:26;6.90;;;4.40;;
12556;SDS011;6344;49.932;8.308;2023-05-07T06:43:53;5.33;;;4.93;;
12556;SDS011;6344;49.932;8.308;2023-05-07T06:46:19;4.20;;;4.00;;
12556;SDS011;6344;49.932;8.308;2023-05-07T06:48:47;4.53;;;4.23;;
12556;SDS011;6344;49.932;8.308;2023-05-07T06:51:14;4.70;;;4.30;;
12556;SDS011;6344;49.932;8.308;2023-05-07T06:53:41;5.20;;;4.90;;
12556;SDS011;6344;49.932;8.308;2023-05-07T06:56:07;4.57;;;4.27;;
12556;SDS011;6344;49.932;8.308;2023-05-07T06:58:34;4.20;;;3.50;;
12556;SDS011;6344;49.932;8.308;2023-05-07T07:01:00;5.07;;;4.57;;
12556;SDS011;6344;49.932;8.308;2023-05-07T07:03:27;5.17;;;4.87;;
12556;SDS011;6344;49.932;8.308;2023-05-07T07:05:56;4.57;;;4.27;;
12556;SDS011;6344;49.932;8.308;2023-05-07T07:08:23;5.77;;;5.20;;
12556;SDS011;6344;49.932;8.308;2023-05-07T07:10:49;4.63;;;4.33;;
12556;SDS011;6344;49.932;8.308;2023-05-07T07:13:16;4.80;;;4.50;;
12556;SDS011;6344;49.932;8.308;2023-05-07T07:15:43;4.93;;;4.63;;
12556;SDS011;6344;49.932;8.308;2023-05-07T07:18:10;4.90;;;4.60;;
12556;SDS011;6344;49.932;8.308;2023-05-07T07:20:36;4.80;;;4.50;;
12556;SDS011;6344;49.932;8.308;2023-05-07T07:23:04;4.77;;;4.37;;
12556;SDS011;6344;49.932;8.308;2023-05-07T07:25:31;5.67;;;5.00;;
12556;SDS011;6344;49.932;8.308;2023-05-07T07:27:58;5.20;;;4.93;;
12556;SDS011;6344;49.932;8.308;2023-05-07T07:30:25;4.57;;;4.27;;
12556;SDS011;6344;49.932;8.308;2023-05-07T07:32:52;4.57;;;4.27;;
12556;SDS011;6344;49.932;8.308;2023-05-07T07:35:18;4.40;;;4.10;;
12556;SDS011;6344;49.932;8.308;2023-05-07T07:37:45;4.60;;;4.30;;
12556;SDS011;6344;49.932;8.308;2023-05-07T07:40:16;5.37;;;5.03;;
12556;SDS011;6344;49.932;8.308;2023-05-07T07:42:42;5.37;;;4.90;;
12556;SDS011;6344;49.932;8.308;2023-05-07T07:45:09;6.07;;;5.30;;
12556;SDS011;6344;49.932;8.308;2023-05-07T07:47:36;4.93;;;4.63;;
12556;SDS011;6344;49.932;8.308;2023-05-07T07:50:03;5.03;;;4.73;;
12556;SDS011;6344;49.932;8.308;2023-05-07T07:52:30;4.90;;;4.60;;
12556;SDS011;6344;49.932;8.308;2023-05-07T07:54:57;6.00;;;4.90;;
12556;SDS011;6344;49.932;8.308;2023-05-07T07:57:25;5.30;;;4.90;;
12556;SDS011;6344;49.932;8.308;2023-05-07T07:59:52;5.47;;;5.03;;
12556;SDS011;6344;49.932;8.308;2023-05-07T08:02:19;5.10;;;4.80;;
12556;SDS011;6344;49.932;8.308;2023-05-07T08:04:45;5.70;;;5.30;;
12556;SDS011;6344;49.932;8.308;2023-05-07T08:07:12;5.83;;;5.33;;
12556;SDS011;6344;49.932;8.308;2023-05-07T08:09:39;5.40;;;5.00;;
12556;SDS011;6344;49.932;8.308;2023-05-07T08:12:06;6.00;;;5.60;;
12556;SDS011;6344;49.932;8.308;2023-05-07T08:14:34;5.57;;;5.17;;
12556;SDS011;6344;49.932;8.308;2023-05-07T08:17:02;5.90;;;5.50;;
12556;SDS011;6344;49.932;8.308;2023-05-07T08:19:28;5.27;;;4.90;;
12556;SDS011;6344;49.932;8.308;2023-05-07T08:21:55;5.53;;;5.10;;
12556;SDS011;6344;49.932;8.308;2023-05-07T08:24:22;5.60;;;5.30;;
12556;SDS011;6344;49.932;8.308;2023-05-07T08:26:48;5.70;;;5.40;;
12556;SDS011;6344;49.932;8.308;2023-05-07T08:29:15;5.87;;;5.33;;
12556;SDS011;6344;49.932;8.308;2023-05-07T08:31:43;5.90;;;4.80;;
12556;SDS011;6344;49.932;8.308;2023-05-07T08:34:10;5.00;;;4.50;;
12556;SDS011;6344;49.932;8.308;2023-05-07T08:36:36;5.37;;;5.07;;
12556;SDS011;6344;49.932;8.308;2023-05-07T08:39:03;5.70;;;5.30;;
12556;SDS011;6344;49.932;8.308;2023-05-07T08:41:30;6.27;;;5.77;;
12556;SDS011;6344;49.932;8.308;2023-05-07T08:43:58;5.53;;;5.23;;
12556;SDS011;6344;49.932;8.308;2023-05-07T08:46:25;5.50;;;5.00;;
12556;SDS011;6344;49.932;8.308;2023-05-07T08:48:57;6.13;;;5.70;;
12556;SDS011;6344;49.932;8.308;2023-05-07T08:51:24;5.80;;;5.40;;
12556;SDS011;6344;49.932;8.308;2023-05-07T08:53:52;5.77;;;5.37;;
12556;SDS011;6344;49.932;8.308;2023-05-07T08:56:18;5.10;;;4.70;;
12556;SDS011;6344;49.932;8.308;2023-05-07T08:58:46;5.70;;;5.30;;
12556;SDS011;6344;49.932;8.308;2023-05-07T09:01:16;6.07;;;5.57;;
12556;SDS011;6344;49.932;8.308;2023-05-07T09:03:43;5.20;;;4.90;;
12556;SDS011;6344;49.932;8.308;2023-05-07T09:06:13;5.50;;;5.20;;
12556;SDS011;6344;49.932;8.308;2023-05-07T09:08:40;5.97;;;5.63;;
12556;SDS011;6344;49.932;8.308;2023-05-07T09:11:06;5.60;;;5.30;;
12556;SDS011;6344;49.932;8.308;2023-05-07T09:13:33;5.27;;;4.97;;
12556;SDS011;6344;49.932;8.308;2023-05-07T09:16:06;5.23;;;4.93;;
12556;SDS011;6344;49.932;8.308;2023-05-07T09:18:40;5.60;;;5.20;;
12556;SDS011;6344;49.932;8.308;2023-05-07T09:21:09;6.23;;;5.83;;
12556;SDS011;6344;49.932;8.308;2023-05-07T09:23:37;6.47;;;5.53;;
12556;SDS011;6344;49.932;8.308;2023-05-07T09:26:04;5.90;;;5.50;;
12556;SDS011;6344;49.932;8.308;2023-05-07T09:28:37;5.33;;;5.07;;
12556;SDS011;6344;49.932;8.308;2023-05-07T09:31:04;5.73;;;5.33;;
12556;SDS011;6344;49.932;8.308;2023-05-07T09:33:31;6.20;;;5.90;;
12556;SDS011;6344;49.932;8.308;2023-05-07T09:35:57;4.87;;;4.40;;
12556;SDS011;6344;49.932;8.308;2023-05-07T09:38:24;5.60;;;5.20;;
12556;SDS011;6344;49.932;8.308;2023-05-07T09:41:02;5.80;;;5.40;;
12556;SDS011;6344;49.932;8.308;2023-05-07T09:43:31;5.70;;;5.30;;
12556;SDS011;6344;49.932;8.308;2023-05-07T09:45:59;6.00;;;5.60;;
12556;SDS011;6344;49.932;8.308;2023-05-07T09:48:33;6.00;;;5.50;;
12556;SDS011;6344;49.932;8.308;2023-05-07T09:51:02;6.83;;;6.03;;
12556;SDS011;6344;49.932;8.308;2023-05-07T09:53:37;6.03;;;5.43;;
12556;SDS011;6344;49.932;8.308;2023-05-07T09:56:07;6.43;;;6.03;;
12556;SDS011;6344;49.932;8.308;2023-05-07T09:58:36;5.37;;;5.07;;
12556;SDS011;6344;49.932;8.308;2023-05-07T10:01:04;6.03;;;5.53;;
12556;SDS011;6344;49.932;8.308;2023-05-07T10:03:32;6.00;;;5.63;;
12556;SDS011;6344;49.932;8.308;2023-05-07T10:06:01;5.50;;;5.20;;
12556;SDS011;6344;49.932;8.308;2023-05-07T10:08:29;5.97;;;5.57;;
12556;SDS011;6344;49.932;8.308;2023-05-07T10:10:57;6.47;;;6.17;;
12556;SDS011;6344;49.932;8.308;2023-05-07T10:13:26;6.43;;;6.03;;
12556;SDS011;6344;49.932;8.308;2023-05-07T10:15:53;6.20;;;5.80;;
12556;SDS011;6344;49.932;8.308;2023-05-07T10:18:20;6.40;;;6.03;;
12556;SDS011;6344;49.932;8.308;2023-05-07T10:20:49;7.00;;;6.40;;
12556;SDS011;6344;49.932;8.308;2023-05-07T10:23:19;6.00;;;5.70;;
12556;SDS011;6344;49.932;8.308;2023-05-07T10:25:49;12.10;;;11.10;;
12556;SDS011;6344;49.932;8.308;2023-05-07T10:28:16;6.80;;;6.20;;
12556;SDS011;6344;49.932;8.308;2023-05-07T10:30:51;5.70;;;5.30;;
12556;SDS011;6344;49.932;8.308;2023-05-07T10:33:27;5.37;;;5.07;;
12556;SDS011;6344;49.932;8.308;2023-05-07T10:35:57;6.90;;;6.30;;
12556;SDS011;6344;49.932;8.308;2023-05-07T10:38:26;5.47;;;5.17;;
12556;SDS011;6344;49.932;8.308;2023-05-07T10:40:54;5.57;;;5.27;;
12556;SDS011;6344;49.932;8.308;2023-05-07T10:43:21;6.33;;;6.03;;
12556;SDS011;6344;49.932;8.308;2023-05-07T10:48:49;5.87;;;5.57;;
12556;SDS011;6344;49.932;8.308;2023-05-07T10:51:33;6.50;;;6.10;;
12556;SDS011;6344;49.932;8.308;2023-05-07T10:54:18;6.60;;;6.13;;
12556;SDS011;6344;49.932;8.308;2023-05-07T10:56:49;5.80;;;5.50;;
12556;SDS011;6344;49.932;8.308;2023-05-07T10:59:33;6.33;;;5.93;;
12556;SDS011;6344;49.932;8.308;2023-05-07T11:02:08;5.97;;;5.57;;
12556;SDS011;6344;49.932;8.308;2023-05-07T11:04:36;6.30;;;5.80;;
12556;SDS011;6344;49.932;8.308;2023-05-07T11:07:21;5.50;;;5.20;;
12556;SDS011;6344;49.932;8.308;2023-05-07T11:09:54;6.57;;;6.07;;
12556;SDS011;6344;49.932;8.308;2023-05-07T11:15:33;5.73;;;5.43;;
12556;SDS011;6344;49.932;8.308;2023-05-07T11:18:02;5.97;;;5.67;;
12556;SDS011;6344;49.932;8.308;2023-05-07T11:20:49;4.53;;;4.33;;
12556;SDS011;6344;49.932;8.308;2023-05-07T11:26:20;6.40;;;5.90;;
12556;SDS011;6344;49.932;8.308;2023-05-07T11:28:48;5.43;;;5.03;;
12556;SDS011;6344;49.932;8.308;2023-05-07T11:31:15;6.13;;;5.57;;
12556;SDS011;6344;49.932;8.308;2023-05-07T11:33:49;6.00;;;5.70;;
12556;SDS011;6344;49.932;8.308;2023-05-07T11:36:16;5.70;;;5.40;;
12556;SDS011;6344;49.932;8.308;2023-05-07T11:38:45;5.97;;;5.67;;
12556;SDS011;6344;49.932;8.308;2023-05-07T11:41:12;5.90;;;5.60;;
12556;SDS011;6344;49.932;8.308;2023-05-07T11:43:40;5.20;;;4.90;;
12556;SDS011;6344;49.932;8.308;2023-05-07T11:46:20;4.70;;;4.40;;
12556;SDS011;6344;49.932;8.308;2023-05-07T11:48:47;4.93;;;4.63;;
12556;SDS011;6344;49.932;8.308;2023-05-07T11:51:15;5.27;;;4.87;;
12556;SDS011;6344;49.932;8.308;2023-05-07T11:53:45;6.40;;;6.00;;
12556;SDS011;6344;49.932;8.308;2023-05-07T11:56:12;5.70;;;5.40;;
12556;SDS011;6344;49.932;8.308;2023-05-07T11:58:40;5.70;;;5.40;;
12556;SDS011;6344;49.932;8.308;2023-05-07T12:01:07;5.97;;;5.60;;
12556;SDS011;6344;49.932;8.308;2023-05-07T12:03:35;6.00;;;5.60;;
12556;SDS011;6344;49.932;8.308;2023-05-07T12:06:02;4.00;;;3.80;;
12556;SDS011;6344;49.932;8.308;2023-05-07T12:08:32;4.20;;;4.00;;
12556;SDS011;6344;49.932;8.308;2023-05-07T12:11:01;4.33;;;4.13;;
12556;SDS011;6344;49.932;8.308;2023-05-07T12:13:28;4.03;;;3.70;;
12556;SDS011;6344;49.932;8.308;2023-05-07T12:15:55;3.67;;;3.47;;
12556;SDS011;6344;49.932;8.308;2023-05-07T12:18:22;4.90;;;4.60;;
12556;SDS011;6344;49.932;8.308;2023-05-07T12:20:49;4.63;;;4.33;;
12556;SDS011;6344;49.932;8.308;2023-05-07T12:23:16;3.60;;;3.40;;
12556;SDS011;6344;49.932;8.308;2023-05-07T12:25:45;5.50;;;5.20;;
12556;SDS011;6344;49.932;8.308;2023-05-07T12:28:13;4.70;;;4.27;;
12556;SDS011;6344;49.932;8.308;2023-05-07T12:30:40;4.37;;;4.07;;
12556;SDS011;6344;49.932;8.308;2023-05-07T12:33:07;3.63;;;3.43;;
12556;SDS011;6344;49.932;8.308;2023-05-07T12:35:36;3.60;;;3.30;;
12556;SDS011;6344;49.932;8.308;2023-05-07T12:38:06;4.33;;;4.13;;
12556;SDS011;6344;49.932;8.308;2023-05-07T12:40:37;4.10;;;3.90;;
12556;SDS011;6344;49.932;8.308;2023-05-07T12:43:06;3.63;;;3.43;;
12556;SDS011;6344;49.932;8.308;2023-05-07T12:45:36;4.13;;;3.93;;
12556;SDS011;6344;49.932;8.308;2023-05-07T12:48:04;4.10;;;3.90;;
12556;SDS011;6344;49.932;8.308;2023-05-07T12:50:31;4.07;;;3.80;;
12556;SDS011;6344;49.932;8.308;2023-05-07T12:52:59;4.10;;;3.90;;
12556;SDS011;6344;49.932;8.308;2023-05-07T12:55:28;3.97;;;3.77;;
12556;SDS011;6344;49.932;8.308;2023-05-07T12:57:55;4.40;;;4.10;;
12556;SDS011;6344;49.932;8.308;2023-05-07T13:00:36;4.20;;;3.90;;
12556;SDS011;6344;49.932;8.308;2023-05-07T13:03:04;3.23;;;3.03;;
12556;SDS011;6344;49.932;8.308;2023-05-07T13:05:31;4.27;;;3.80;;
12556;SDS011;6344;49.932;8.308;2023-05-07T13:07:58;3.60;;;3.30;;
12556;SDS011;6344;49.932;8.308;2023-05-07T13:10:25;2.90;;;2.70;;
12556;SDS011;6344;49.932;8.308;2023-05-07T13:12:53;3.10;;;2.97;;
12556;SDS011;6344;49.932;8.308;2023-05-07T13:15:19;3.50;;;3.20;;
12556;SDS011;6344;49.932;8.308;2023-05-07T13:17:48;3.30;;;3.10;;
12556;SDS011;6344;49.932;8.308;2023-05-07T13:20:15;3.10;;;3.00;;
12556;SDS011;6344;49.932;8.308;2023-05-07T13:22:42;3.90;;;3.63;;
12556;SDS011;6344;49.932;8.308;2023-05-07T13:25:08;3.10;;;3.00;;
12556;SDS011;6344;49.932;8.308;2023-05-07T13:27:35;3.20;;;3.00;;
12556;SDS011;6344;49.932;8.308;2023-05-07T13:30:02;3.50;;;3.40;;
12556;SDS011;6344;49.932;8.308;2023-05-07T13:32:30;3.30;;;3.10;;
12556;SDS011;6344;49.932;8.308;2023-05-07T13:34:58;2.93;;;2.83;;
12556;SDS011;6344;49.932;8.308;2023-05-07T13:37:25;3.20;;;3.10;;
12556;SDS011;6344;49.932;8.308;2023-05-07T13:39:52;3.50;;;3.30;;
12556;SDS011;6344;49.932;8.308;2023-05-07T13:42:18;3.47;;;3.27;;
12556;SDS011;6344;49.932;8.308;2023-05-07T13:44:45;3.87;;;3.67;;
12556;SDS011;6344;49.932;8.308;2023-05-07T13:47:11;4.03;;;3.83;;
12556;SDS011;6344;49.932;8.308;2023-05-07T13:49:38;4.07;;;3.87;;
12556;SDS011;6344;49.932;8.308;2023-05-07T13:52:06;3.80;;;3.60;;
12556;SDS011;6344;49.932;8.308;2023-05-07T13:54:32;4.33;;;4.10;;
12556;SDS011;6344;49.932;8.308;2023-05-07T13:56:59;4.27;;;3.47;;
12556;SDS011;6344;49.932;8.308;2023-05-07T13:59:26;4.10;;;3.90;;
12556;SDS011;6344;49.932;8.308;2023-05-07T14:01:53;3.93;;;3.63;;
12556;SDS011;6344;49.932;8.308;2023-05-07T14:04:20;3.83;;;3.63;;
12556;SDS011;6344;49.932;8.308;2023-05-07T14:06:47;4.00;;;3.80;;
12556;SDS011;6344;49.932;8.308;2023-05-07T14:09:15;5.20;;;3.67;;
12556;SDS011;6344;49.932;8.308;2023-05-07T14:11:42;3.60;;;3.40;;
12556;SDS011;6344;49.932;8.308;2023-05-07T14:14:08;4.10;;;3.90;;
12556;SDS011;6344;49.932;8.308;2023-05-07T14:16:36;3.90;;;3.70;;
12556;SDS011;6344;49.932;8.308;2023-05-07T14:19:03;3.47;;;3.27;;
12556;SDS011;6344;49.932;8.308;2023-05-07T14:21:29;2.80;;;2.70;;
12556;SDS011;6344;49.932;8.308;2023-05-07T14:23:56;3.30;;;3.20;;
12556;SDS011;6344;49.932;8.308;2023-05-07T14:26:26;3.60;;;3.40;;
12556;SDS011;6344;49.932;8.308;2023-05-07T14:28:53;3.70;;;3.50;;
12556;SDS011;6344;49.932;8.308;2023-05-07T14:31:22;3.60;;;3.30;;
12556;SDS011;6344;49.932;8.308;2023-05-07T14:33:48;3.40;;;3.20;;
12556;SDS011;6344;49.932;8.308;2023-05-07T14:36:15;3.93;;;3.63;;
12556;SDS011;6344;49.932;8.308;2023-05-07T14:38:42;3.43;;;3.13;;
12556;SDS011;6344;49.932;8.308;2023-05-07T14:41:09;4.03;;;3.83;;
12556;SDS011;6344;49.932;8.308;2023-05-07T14:43:37;4.00;;;3.80;;
12556;SDS011;6344;49.932;8.308;2023-05-07T14:46:03;3.20;;;3.00;;
12556;SDS011;6344;49.932;8.308;2023-05-07T14:48:30;4.00;;;3.80;;
12556;SDS011;6344;49.932;8.308;2023-05-07T14:50:57;3.63;;;3.43;;
12556;SDS011;6344;49.932;8.308;2023-05-07T14:53:23;3.53;;;3.33;;
12556;SDS011;6344;49.932;8.308;2023-05-07T14:55:50;6.10;;;3.80;;
12556;SDS011;6344;49.932;8.308;2023-05-07T14:58:17;3.50;;;3.20;;
12556;SDS011;6344;49.932;8.308;2023-05-07T15:00:45;4.17;;;3.97;;
12556;SDS011;6344;49.932;8.308;2023-05-07T15:03:12;4.40;;;4.00;;
12556;SDS011;6344;49.932;8.308;2023-05-07T15:05:38;3.77;;;3.57;;
12556;SDS011;6344;49.932;8.308;2023-05-07T15:08:06;3.60;;;3.40;;
12556;SDS011;6344;49.932;8.308;2023-05-07T15:10:34;4.23;;;3.80;;
12556;SDS011;6344;49.932;8.308;2023-05-07T15:13:05;4.10;;;3.80;;